createdAt,value
2018-12-21T00:02:13.682Z,100450.58
2018-12-21T00:04:41.111Z,100458.25
2018-12-21T00:07:08.537Z,100451.20
2018-12-21T00:09:35.955Z,100447.52
2018-12-21T00:12:03.391Z,100445.38
2018-12-21T00:14:30.804Z,100456.60
2018-12-21T00:16:58.244Z,100445.74
2018-12-21T00:19:25.712Z,100446.20
2018-12-21T00:21:53.144Z,100447.42
2018-12-21T00:24:20.585Z,100444.64
2018-12-21T00:26:48.088Z,100431.31
2018-12-21T00:29:15.582Z,100419.38
2018-12-21T00:31:48.693Z,100409.86
2018-12-21T00:34:21.833Z,100402.57
2018-12-21T00:36:54.812Z,100408.92
2018-12-21T00:39:27.855Z,100418.59
2018-12-21T00:41:54.847Z,100402.19
2018-12-21T00:44:24.241Z,100395.27
2018-12-21T00:46:51.671Z,100397.23
2018-12-21T00:49:19.073Z,100397.23
2018-12-21T00:51:46.631Z,100393.30
2018-12-21T00:54:14.073Z,100390.17
2018-12-21T00:56:41.615Z,100389.84
2018-12-21T00:59:09.091Z,100382.80
2018-12-21T01:01:36.565Z,100385.91
2018-12-21T01:04:04.089Z,100387.34
2018-12-21T01:06:31.562Z,100383.57
2018-12-21T01:08:59.051Z,100374.88
2018-12-21T01:11:26.467Z,100378.81
2018-12-21T01:13:53.908Z,100379.14
2018-12-21T01:16:21.390Z,100381.61
2018-12-21T01:18:48.877Z,100379.69
2018-12-21T01:21:16.296Z,100375.10
2018-12-21T01:23:43.859Z,100372.89
2018-12-21T01:26:11.315Z,100381.17
2018-12-21T01:28:38.732Z,100383.17
2018-12-21T01:31:06.179Z,100385.47
2018-12-21T01:33:33.594Z,100382.15
2018-12-21T01:36:01.157Z,100373.95
2018-12-21T01:38:28.589Z,100374.77
2018-12-21T01:40:56.056Z,100374.44
2018-12-21T01:43:23.519Z,100365.70
2018-12-21T01:45:51.068Z,100366.89
2018-12-21T01:48:18.615Z,100366.07
2018-12-21T01:50:46.092Z,100370.67
2018-12-21T01:53:13.527Z,100369.23
2018-12-21T01:55:40.938Z,100366.61
2018-12-21T01:58:08.375Z,100366.61
2018-12-21T02:00:35.803Z,100354.47
2018-12-21T02:03:03.271Z,100358.58
2018-12-21T02:05:30.677Z,100351.69
2018-12-21T02:07:58.230Z,100342.66
2018-12-21T02:10:25.741Z,100335.73
2018-12-21T02:12:53.213Z,100331.59
2018-12-21T02:15:20.700Z,100335.17
2018-12-21T02:17:48.233Z,100338.36
2018-12-21T02:20:15.658Z,100327.45
2018-12-21T02:22:43.226Z,100312.36
2018-12-21T02:25:10.701Z,100317.12
2018-12-21T02:27:38.124Z,100310.56
2018-12-21T02:30:06.754Z,100311.87
2018-12-21T02:32:34.197Z,100305.18
2018-12-21T02:35:01.615Z,100298.75
2018-12-21T02:37:29.096Z,100296.81
2018-12-21T02:39:56.514Z,100293.38
2018-12-21T02:42:23.949Z,100295.02
2018-12-21T02:44:51.364Z,100288.95
2018-12-21T02:47:18.926Z,100288.91
2018-12-21T02:49:46.382Z,100280.21
2018-12-21T02:52:13.852Z,100278.54
2018-12-21T02:54:41.294Z,100274.89
2018-12-21T02:57:08.762Z,100273.45
2018-12-21T02:59:36.227Z,100272.62
2018-12-21T03:02:03.683Z,100275.88
2018-12-21T03:04:31.147Z,100275.75
2018-12-21T03:06:58.587Z,100266.56
2018-12-21T03:09:26.012Z,100266.69
2018-12-21T03:11:53.703Z,100251.44
2018-12-21T03:14:21.106Z,100244.59
2018-12-21T03:16:48.648Z,100249.02
2018-12-21T03:19:16.148Z,100238.22
2018-12-21T03:21:43.644Z,100234.95
2018-12-21T03:24:11.201Z,100217.56
2018-12-21T03:26:38.641Z,100206.57
2018-12-21T03:29:06.107Z,100208.17
2018-12-21T03:31:33.515Z,100203.59
2018-12-21T03:34:01.134Z,100197.98
2018-12-21T03:36:28.543Z,100185.34
2018-12-21T03:38:56.049Z,100184.20
2018-12-21T03:41:23.502Z,100176.66
2018-12-21T03:43:50.955Z,100163.87
2018-12-21T03:46:18.431Z,100159.60
2018-12-21T03:48:45.863Z,100148.29
2018-12-21T03:51:13.287Z,100151.23
2018-12-21T03:53:40.781Z,100141.56
2018-12-21T03:56:08.238Z,100134.05
2018-12-21T03:58:35.697Z,100130.94
2018-12-21T04:01:03.109Z,100123.25
2018-12-21T04:03:30.525Z,100125.88
2018-12-21T04:05:57.958Z,100113.58
2018-12-21T04:08:25.365Z,100115.05
2018-12-21T04:10:52.869Z,100103.60
2018-12-21T04:13:20.358Z,100092.64
2018-12-21T04:15:47.766Z,100087.58
2018-12-21T04:18:15.249Z,100078.20
2018-12-21T04:20:42.686Z,100069.70
2018-12-21T04:23:10.276Z,100060.52
2018-12-21T04:25:37.695Z,100059.85
2018-12-21T04:28:05.174Z,100045.42
2018-12-21T04:30:32.641Z,100037.23
2018-12-21T04:33:00.046Z,100049.73
2018-12-21T04:35:27.472Z,100030.54
2018-12-21T04:37:54.915Z,100021.05
2018-12-21T04:40:22.454Z,100030.89
2018-12-21T04:42:49.862Z,100012.70
2018-12-21T04:45:17.398Z,100024.03
2018-12-21T04:47:44.911Z,100016.66
2018-12-21T04:50:12.401Z,100008.98
2018-12-21T04:52:43.396Z,99995.53
2018-12-21T04:55:09.229Z,99981.78
2018-12-21T04:57:36.663Z,99986.04
2018-12-21T05:00:04.878Z,99979.16
2018-12-21T05:02:32.369Z,99975.41
2018-12-21T05:04:59.889Z,99974.41
2018-12-21T05:07:27.354Z,99967.68
2018-12-21T05:09:54.810Z,99961.78
2018-12-21T05:12:22.709Z,99961.61
2018-12-21T05:14:50.248Z,99955.86
2018-12-21T05:17:17.714Z,99946.85
2018-12-21T05:19:45.156Z,99944.22
2018-12-21T05:22:12.614Z,99949.80
2018-12-21T05:24:40.045Z,99948.02
2018-12-21T05:27:07.528Z,99936.84
2018-12-21T05:29:34.945Z,99940.65
2018-12-21T05:32:02.357Z,99932.59
2018-12-21T05:34:29.770Z,99931.60
2018-12-21T05:36:57.203Z,99915.70
2018-12-21T05:39:24.624Z,99908.81
2018-12-21T05:41:52.092Z,99892.56
2018-12-21T05:44:19.507Z,99901.75
2018-12-21T05:46:46.989Z,99880.88
2018-12-21T05:49:14.407Z,99878.43
2018-12-21T05:51:41.855Z,99864.30
2018-12-21T05:54:09.426Z,99865.80
2018-12-21T05:56:36.931Z,99867.60
2018-12-21T05:59:04.483Z,99854.76
2018-12-21T06:01:31.924Z,99853.27
2018-12-21T06:03:59.401Z,99860.00
2018-12-21T06:06:26.826Z,99866.02
2018-12-21T06:08:54.223Z,99862.44
2018-12-21T06:11:21.865Z,99855.02
2018-12-21T06:13:49.270Z,99852.21
2018-12-21T06:16:16.771Z,99844.19
2018-12-21T06:18:44.204Z,99834.33
2018-12-21T06:21:11.623Z,99827.27
2018-12-21T06:23:39.144Z,99817.27
2018-12-21T06:26:06.560Z,99804.64
2018-12-21T06:28:34.047Z,99793.97
2018-12-21T06:31:01.475Z,99787.76
2018-12-21T06:33:28.892Z,99779.06
2018-12-21T06:35:56.305Z,99769.03
2018-12-21T06:38:23.739Z,99771.02
2018-12-21T06:40:51.226Z,99762.33
2018-12-21T06:43:18.621Z,99760.02
2018-12-21T06:45:46.156Z,99749.67
2018-12-21T06:48:13.573Z,99740.98
2018-12-21T06:50:41.053Z,99731.47
2018-12-21T06:53:08.483Z,99731.97
2018-12-21T06:55:35.893Z,99715.09
2018-12-21T06:58:03.329Z,99710.33
2018-12-21T07:00:30.742Z,99691.64
2018-12-21T07:02:58.179Z,99690.33
2018-12-21T07:05:25.604Z,99685.40
2018-12-21T07:07:53.058Z,99677.34
2018-12-21T07:10:20.543Z,99666.03
2018-12-21T07:12:47.960Z,99663.59
2018-12-21T07:15:15.432Z,99672.28
2018-12-21T07:17:42.851Z,99669.80
2018-12-21T07:20:10.285Z,99652.09
2018-12-21T07:22:37.803Z,99629.28
2018-12-21T07:25:06.523Z,99626.34
2018-12-21T07:27:34.047Z,99630.59
2018-12-21T07:30:01.513Z,99626.66
2018-12-21T07:32:28.952Z,99605.65
2018-12-21T07:34:56.409Z,99580.25
2018-12-21T07:37:23.865Z,99584.82
2018-12-21T07:39:51.301Z,99581.37
2018-12-21T07:42:18.727Z,99575.13
2018-12-21T07:44:46.233Z,99577.11
2018-12-21T07:47:13.652Z,99565.12
2018-12-21T07:49:41.077Z,99555.95
2018-12-21T07:52:08.490Z,99552.98
2018-12-21T07:54:35.961Z,99549.19
2018-12-21T07:57:03.447Z,99539.34
2018-12-21T07:59:30.874Z,99543.77
2018-12-21T08:01:58.292Z,99526.20
2018-12-21T08:04:25.693Z,99519.14
2018-12-21T08:06:53.132Z,99532.25
2018-12-21T08:09:20.567Z,99531.44
2018-12-21T08:11:47.990Z,99510.56
2018-12-21T08:14:15.447Z,99504.00
2018-12-21T08:16:42.866Z,99495.47
2018-12-21T08:19:10.303Z,99496.28
2018-12-21T08:21:37.724Z,99469.84
2018-12-21T08:24:05.242Z,99475.09
2018-12-21T08:26:32.673Z,99466.08
2018-12-21T08:29:00.190Z,99460.64
2018-12-21T08:31:27.727Z,99470.18
2018-12-21T08:33:55.177Z,99470.49
2018-12-21T08:36:22.644Z,99470.81
2018-12-21T08:38:50.061Z,99468.84
2018-12-21T08:41:17.492Z,99456.37
2018-12-21T08:43:44.901Z,99456.84
2018-12-21T08:46:12.322Z,99443.83
2018-12-21T08:48:39.739Z,99440.23
2018-12-21T08:51:07.144Z,99435.80
2018-12-21T08:53:34.637Z,99434.30
2018-12-21T08:56:02.080Z,99422.16
2018-12-21T08:58:29.507Z,99420.66
2018-12-21T09:00:57.008Z,99412.94
2018-12-21T09:03:24.439Z,99409.34
2018-12-21T09:05:51.867Z,99402.23
2018-12-21T09:08:19.377Z,99399.92
2018-12-21T09:10:46.847Z,99395.82
2018-12-21T09:13:14.275Z,99393.81
2018-12-21T09:15:41.733Z,99385.63
2018-12-21T09:18:09.174Z,99383.19
2018-12-21T09:20:36.652Z,99382.03
2018-12-21T09:23:04.079Z,99369.70
2018-12-21T09:25:31.544Z,99362.52
2018-12-21T09:27:58.976Z,99352.31
2018-12-21T09:30:26.438Z,99348.34
2018-12-21T09:32:53.905Z,99334.34
2018-12-21T09:35:21.297Z,99338.09
2018-12-21T09:37:48.728Z,99331.13
2018-12-21T09:40:16.150Z,99316.94
2018-12-21T09:42:43.565Z,99313.95
2018-12-21T09:45:11.029Z,99309.66
2018-12-21T09:47:38.451Z,99299.29
2018-12-21T09:50:06.960Z,99294.18
2018-12-21T09:52:34.410Z,99285.95
2018-12-21T09:55:01.935Z,99280.39
2018-12-21T09:57:29.360Z,99270.37
2018-12-21T09:59:56.885Z,99266.94
2018-12-21T10:02:24.356Z,99239.64
2018-12-21T10:04:51.769Z,99256.88
2018-12-21T10:07:27.376Z,99233.06
2018-12-21T10:09:48.675Z,99250.35
2018-12-21T10:12:16.110Z,99249.54
2018-12-21T10:14:43.577Z,99240.14
2018-12-21T10:17:11.144Z,99227.30
2018-12-21T10:19:38.604Z,99226.14
2018-12-21T10:22:06.009Z,99226.28
2018-12-21T10:24:33.431Z,99220.83
2018-12-21T10:27:00.834Z,99213.08
2018-12-21T10:29:28.313Z,99205.64
2018-12-21T10:31:55.722Z,99211.35
2018-12-21T10:35:08.806Z,99204.36
2018-12-21T10:37:36.276Z,99199.88
2018-12-21T10:40:04.881Z,99207.88
2018-12-21T10:42:32.400Z,99195.83
2018-12-21T10:44:59.822Z,99189.52
2018-12-21T10:47:27.267Z,99187.34
2018-12-21T10:49:54.691Z,99193.04
2018-12-21T10:52:22.124Z,99188.22
2018-12-21T10:54:49.545Z,99188.47
2018-12-21T10:57:16.953Z,99183.00
2018-12-21T10:59:44.512Z,99179.94
2018-12-21T11:02:11.963Z,99178.38
2018-12-21T11:04:39.520Z,99169.61
2018-12-21T11:07:07.178Z,99178.25
2018-12-21T11:09:34.655Z,99169.34
2018-12-21T11:12:02.103Z,99169.98
2018-12-21T11:14:29.537Z,99169.67
2018-12-21T11:16:56.955Z,99169.81
2018-12-21T11:19:24.467Z,99165.02
2018-12-21T11:21:51.923Z,99168.66
2018-12-21T11:24:19.365Z,99160.26
2018-12-21T11:26:46.777Z,99156.64
2018-12-21T11:29:14.201Z,99152.29
2018-12-21T11:31:41.634Z,99147.87
2018-12-21T11:34:09.074Z,99153.73
2018-12-21T11:36:36.500Z,99146.98
2018-12-21T11:39:05.604Z,99148.53
2018-12-21T11:41:33.023Z,99140.69
2018-12-21T11:44:00.477Z,99137.80
2018-12-21T11:46:27.914Z,99133.40
2018-12-21T11:48:55.337Z,99134.05
2018-12-21T11:51:22.760Z,99130.23
2018-12-21T11:53:50.197Z,99133.80
2018-12-21T11:56:17.636Z,99130.86
2018-12-21T11:58:45.115Z,99124.78
2018-12-21T12:01:12.568Z,99121.77
2018-12-21T12:03:39.991Z,99117.10
2018-12-21T12:06:07.484Z,99122.41
2018-12-21T12:08:34.909Z,99108.98
2018-12-21T12:11:02.339Z,99106.39
2018-12-21T12:13:29.760Z,99116.03
2018-12-21T12:15:57.213Z,99120.20
2018-12-21T12:18:24.660Z,99108.16
2018-12-21T12:20:52.112Z,99117.30
2018-12-21T12:23:19.593Z,99110.53
2018-12-21T12:25:47.125Z,99113.08
2018-12-21T12:28:14.565Z,99105.39
2018-12-21T12:30:41.987Z,99104.48
2018-12-21T12:33:09.464Z,99105.92
2018-12-21T12:35:36.973Z,99094.27
2018-12-21T12:38:04.394Z,99103.83
2018-12-21T12:40:31.891Z,99110.45
2018-12-21T12:42:59.337Z,99105.08
2018-12-21T12:45:26.799Z,99105.50
2018-12-21T12:47:54.232Z,99109.69
2018-12-21T12:50:21.681Z,99108.52
2018-12-21T12:52:49.100Z,99105.30
2018-12-21T12:55:16.536Z,99117.77
2018-12-21T12:57:43.977Z,99114.14
2018-12-21T13:00:11.532Z,99123.45
2018-12-21T13:02:38.954Z,99124.30
2018-12-21T13:05:06.793Z,99127.74
2018-12-21T13:07:34.221Z,99128.85
2018-12-21T13:10:01.693Z,99120.42
2018-12-21T13:12:29.116Z,99116.68
2018-12-21T13:14:56.563Z,99129.66
2018-12-21T13:17:23.982Z,99118.41
2018-12-21T13:19:51.489Z,99111.81
2018-12-21T13:22:18.945Z,99121.86
2018-12-21T13:24:46.391Z,99109.17
2018-12-21T13:27:13.797Z,99115.05
2018-12-21T13:29:41.209Z,99111.42
2018-12-21T13:32:08.671Z,99124.22
2018-12-21T13:34:36.082Z,99131.41
2018-12-21T13:37:03.615Z,99131.82
2018-12-21T13:39:31.043Z,99125.55
2018-12-21T13:41:58.505Z,99117.13
2018-12-21T13:44:25.975Z,99138.44
2018-12-21T13:46:53.403Z,99146.87
2018-12-21T13:49:20.834Z,99143.32
2018-12-21T13:51:48.342Z,99152.56
2018-12-21T13:54:15.784Z,99164.85
2018-12-21T13:56:43.215Z,99178.98
2018-12-21T13:59:10.659Z,99184.67
2018-12-21T14:01:38.114Z,99192.91
2018-12-21T14:04:05.596Z,99189.37
2018-12-21T14:06:33.011Z,99219.42
2018-12-21T14:09:00.413Z,99198.41
2018-12-21T14:11:27.848Z,99201.17
2018-12-21T14:13:55.465Z,99201.47
2018-12-21T14:16:22.927Z,99214.77
2018-12-21T14:18:50.336Z,99213.03
2018-12-21T14:21:17.769Z,99224.29
2018-12-21T14:23:45.291Z,99229.67
2018-12-21T14:26:12.747Z,99249.35
2018-12-21T14:28:40.181Z,99232.91
2018-12-21T14:31:07.622Z,99248.13
2018-12-21T14:33:35.140Z,99241.83
2018-12-21T14:36:02.549Z,99248.75
2018-12-21T14:38:30.023Z,99255.44
2018-12-21T14:40:57.443Z,99253.83
2018-12-21T14:43:24.866Z,99265.52
2018-12-21T14:45:52.288Z,99279.20
2018-12-21T14:48:19.716Z,99267.12
2018-12-21T14:50:47.189Z,99293.25
2018-12-21T14:53:14.602Z,99297.80
2018-12-21T14:55:42.119Z,99295.77
2018-12-21T14:58:09.587Z,99298.53
2018-12-21T15:00:37.017Z,99294.36
2018-12-21T15:03:04.457Z,99311.91
2018-12-21T15:05:31.865Z,99309.98
2018-12-21T15:07:59.304Z,99314.76
2018-12-21T15:10:26.780Z,99331.11
2018-12-21T15:12:54.205Z,99332.01
2018-12-21T15:15:21.676Z,99334.69
2018-12-21T15:17:49.217Z,99335.08
2018-12-21T15:20:16.689Z,99339.45
2018-12-21T15:22:44.163Z,99346.63
2018-12-21T15:25:11.615Z,99331.59
2018-12-21T15:27:39.059Z,99347.43
2018-12-21T15:30:08.432Z,99350.07
2018-12-21T15:32:35.849Z,99351.48
2018-12-21T15:35:03.677Z,99342.33
2018-12-21T15:37:31.153Z,99339.00
2018-12-21T15:39:58.657Z,99356.16
2018-12-21T15:42:26.100Z,99353.78
2018-12-21T15:44:53.519Z,99355.91
2018-12-21T15:47:20.991Z,99369.36
2018-12-21T15:49:48.421Z,99377.75
2018-12-21T15:52:15.896Z,99378.09
2018-12-21T15:54:43.327Z,99394.91
2018-12-21T15:57:10.737Z,99393.12
2018-12-21T15:59:38.220Z,99399.59
2018-12-21T16:02:05.703Z,99406.87
2018-12-21T16:04:33.124Z,99411.04
2018-12-21T16:07:00.590Z,99398.14
2018-12-21T16:09:28.087Z,99404.06
2018-12-21T16:11:55.660Z,99422.41
2018-12-21T16:14:23.111Z,99410.91
2018-12-21T16:16:50.559Z,99414.45
2018-12-21T16:19:18.016Z,99413.51
2018-12-21T16:21:45.488Z,99421.81
2018-12-21T16:24:12.922Z,99433.69
2018-12-21T16:26:40.386Z,99425.64
2018-12-21T16:29:07.807Z,99436.27
2018-12-21T16:31:35.212Z,99425.36
2018-12-21T16:34:02.646Z,99442.96
2018-12-21T16:36:30.072Z,99435.59
2018-12-21T16:38:57.558Z,99433.95
2018-12-21T16:41:25.027Z,99427.86
2018-12-21T16:43:52.520Z,99434.15
2018-12-21T16:46:19.944Z,99428.87
2018-12-21T16:48:47.429Z,99435.93
2018-12-21T16:51:14.899Z,99458.16
2018-12-21T16:53:42.753Z,99464.06
2018-12-21T16:56:12.687Z,99465.89
2018-12-21T16:58:39.651Z,99465.19
2018-12-21T17:01:07.057Z,99468.03
2018-12-21T17:03:34.499Z,99476.51
2018-12-21T17:06:01.919Z,99481.66
2018-12-21T17:08:29.438Z,99490.08
2018-12-21T17:10:56.952Z,99496.71
2018-12-21T17:13:24.416Z,99488.19
2018-12-21T17:15:51.889Z,99498.44
2018-12-21T17:18:19.416Z,99512.00
2018-12-21T17:20:46.892Z,99514.03
2018-12-21T17:23:14.311Z,99540.08
2018-12-21T17:25:41.770Z,99530.91
2018-12-21T17:28:09.269Z,99539.97
2018-12-21T17:30:36.831Z,99535.56
2018-12-21T17:33:04.249Z,99538.88
2018-12-21T17:35:31.665Z,99543.07
2018-12-21T17:37:59.098Z,99545.09
2018-12-21T17:40:26.504Z,99542.18
2018-12-21T17:42:53.947Z,99557.05
2018-12-21T17:45:21.467Z,99575.95
2018-12-21T17:47:48.913Z,99548.55
2018-12-21T17:50:16.380Z,99570.59
2018-12-21T17:52:43.791Z,99549.72
2018-12-21T17:55:11.223Z,99558.00
2018-12-21T17:57:38.633Z,99570.38
2018-12-21T18:00:11.565Z,99575.95
2018-12-21T18:02:38.991Z,99589.64
2018-12-21T18:05:06.785Z,99586.78
2018-12-21T18:07:34.192Z,99593.15
2018-12-21T18:10:01.614Z,99601.59
2018-12-21T18:12:29.089Z,99591.92
2018-12-21T18:14:56.591Z,99603.98
2018-12-21T18:17:24.024Z,99619.97
2018-12-21T18:19:51.500Z,99613.58
2018-12-21T18:22:18.924Z,99600.70
2018-12-21T18:24:46.702Z,99615.51
2018-12-21T18:27:14.133Z,99616.52
2018-12-21T18:29:41.605Z,99633.97
2018-12-21T18:32:09.623Z,99644.71
2018-12-21T18:34:37.051Z,99635.98
2018-12-21T18:37:04.534Z,99634.02
2018-12-21T18:39:31.957Z,99637.83
2018-12-21T18:41:59.432Z,99645.94
2018-12-21T18:44:26.873Z,99646.61
2018-12-21T18:46:54.297Z,99639.71
2018-12-21T18:49:21.718Z,99647.00
2018-12-21T18:51:49.269Z,99648.13
2018-12-21T18:54:17.038Z,99668.91
2018-12-21T18:56:48.493Z,99681.39
2018-12-21T18:59:15.914Z,99675.61
2018-12-21T19:01:43.324Z,99682.09
2018-12-21T19:04:10.832Z,99687.02
2018-12-21T19:06:38.324Z,99691.17
2018-12-21T19:09:05.804Z,99699.24
2018-12-21T19:11:33.310Z,99698.89
2018-12-21T19:14:00.873Z,99690.81
2018-12-21T19:16:28.284Z,99696.25
2018-12-21T19:18:55.782Z,99710.95
2018-12-21T19:21:23.244Z,99717.53
2018-12-21T19:23:50.671Z,99722.61
2018-12-21T19:26:18.175Z,99720.17
2018-12-21T19:28:45.604Z,99708.62
2018-12-21T19:31:13.062Z,99722.41
2018-12-21T19:33:40.500Z,99728.73
2018-12-21T19:36:07.942Z,99740.40
2018-12-21T19:38:35.456Z,99726.61
2018-12-21T19:41:02.877Z,99732.75
2018-12-21T19:43:30.310Z,99731.16
2018-12-21T19:45:57.729Z,99734.97
2018-12-21T19:48:25.147Z,99735.01
2018-12-21T19:50:52.592Z,99739.98
2018-12-21T19:53:20.001Z,99746.72
2018-12-21T19:55:48.916Z,99747.34
2018-12-21T19:58:16.330Z,99761.22
2018-12-21T20:00:43.741Z,99755.29
2018-12-21T20:03:11.200Z,99756.84
2018-12-21T20:05:38.712Z,99754.36
2018-12-21T20:08:06.151Z,99765.91
2018-12-21T20:10:33.581Z,99764.75
2018-12-21T20:13:01.091Z,99765.91
2018-12-21T20:15:28.531Z,99772.00
2018-12-21T20:17:56.088Z,99762.81
2018-12-21T20:20:23.556Z,99760.68
2018-12-21T20:22:51.104Z,99775.13
2018-12-21T20:25:18.584Z,99770.02
2018-12-21T20:27:46.005Z,99757.85
2018-12-21T20:30:14.628Z,99766.73
2018-12-21T20:32:42.061Z,99765.41
2018-12-21T20:35:09.737Z,99765.41
2018-12-21T20:37:37.269Z,99767.89
2018-12-21T20:40:10.362Z,99768.86
2018-12-21T20:42:37.895Z,99777.42
2018-12-21T20:45:08.409Z,99774.23
2018-12-21T20:47:35.839Z,99790.83
2018-12-21T20:50:06.139Z,99784.74
2018-12-21T20:52:33.566Z,99785.25
2018-12-21T20:55:01.005Z,99790.52
2018-12-21T20:57:28.472Z,99787.37
2018-12-21T20:59:56.042Z,99788.19
2018-12-21T21:02:23.631Z,99796.44
2018-12-21T21:04:51.089Z,99796.76
2018-12-21T21:07:18.519Z,99800.24
2018-12-21T21:09:45.941Z,99812.11
2018-12-21T21:12:13.516Z,99801.38
2018-12-21T21:14:40.978Z,99812.11
2018-12-21T21:17:08.469Z,99822.95
2018-12-21T21:19:35.884Z,99824.63
2018-12-21T21:22:03.384Z,99824.97
2018-12-21T21:24:30.851Z,99822.33
2018-12-21T21:26:58.283Z,99818.04
2018-12-21T21:29:25.763Z,99827.95
2018-12-21T21:31:53.195Z,99835.17
2018-12-21T21:34:20.622Z,99828.27
2018-12-21T21:36:48.139Z,99837.34
2018-12-21T21:39:15.578Z,99841.29
2018-12-21T21:41:43.001Z,99839.81
2018-12-21T21:44:10.539Z,99848.57
2018-12-21T21:46:38.067Z,99855.47
2018-12-21T21:49:05.510Z,99863.37
2018-12-21T21:51:32.931Z,99872.59
2018-12-21T21:54:00.351Z,99890.39
2018-12-21T21:56:27.802Z,99886.28
2018-12-21T21:58:55.222Z,99885.02
2018-12-21T22:01:22.724Z,99900.56
2018-12-21T22:03:50.141Z,99900.77
2018-12-21T22:06:17.622Z,99907.91
2018-12-21T22:08:45.053Z,99912.53
2018-12-21T22:11:12.517Z,99905.28
2018-12-21T22:13:39.945Z,99903.81
2018-12-21T22:16:07.489Z,99907.28
2018-12-21T22:18:34.907Z,99911.75
2018-12-21T22:21:02.344Z,99916.86
2018-12-21T22:23:29.897Z,99912.78
2018-12-21T22:25:57.373Z,99918.84
2018-12-21T22:28:24.847Z,99923.92
2018-12-21T22:30:52.289Z,99921.31
2018-12-21T22:33:19.702Z,99923.79
2018-12-21T22:35:47.135Z,99933.80
2018-12-21T22:38:14.579Z,99935.44
2018-12-21T22:40:41.999Z,99942.70
2018-12-21T22:43:09.471Z,99951.56
2018-12-21T22:45:36.921Z,99934.47
2018-12-21T22:48:04.484Z,99939.25
2018-12-21T22:50:31.926Z,99936.45
2018-12-21T22:52:59.405Z,99939.28
2018-12-21T22:55:26.860Z,99933.52
2018-12-21T22:57:56.586Z,99940.73
2018-12-21T23:00:25.753Z,99948.63
2018-12-21T23:02:53.205Z,99951.75
2018-12-21T23:05:20.691Z,99956.86
2018-12-21T23:07:48.116Z,99951.91
2018-12-21T23:10:15.588Z,99960.48
2018-12-21T23:12:43.015Z,99963.75
2018-12-21T23:15:10.436Z,99973.64
2018-12-21T23:17:37.861Z,99968.70
2018-12-21T23:20:06.199Z,99985.65
2018-12-21T23:22:33.637Z,99973.98
2018-12-21T23:25:01.142Z,99961.47
2018-12-21T23:27:28.640Z,99975.27
2018-12-21T23:29:56.154Z,99969.86
2018-12-21T23:32:23.599Z,99980.23
2018-12-21T23:34:51.095Z,99971.50
2018-12-21T23:37:18.512Z,99976.61
2018-12-21T23:39:45.947Z,99972.00
2018-12-21T23:42:13.449Z,99976.27
2018-12-21T23:44:40.881Z,99970.01
2018-12-21T23:47:08.301Z,99970.51
2018-12-21T23:49:35.916Z,99968.70
2018-12-21T23:52:03.349Z,99969.69
2018-12-21T23:54:30.836Z,99967.06
2018-12-21T23:56:58.261Z,99969.19
2018-12-21T23:59:25.793Z,99972.31
